createdAt,value
2019-03-28T00:00:48.950Z,99.90
2019-03-28T00:03:18.610Z,99.90
2019-03-28T00:05:48.249Z,99.90
2019-03-28T00:08:17.894Z,99.90
2019-03-28T00:10:47.518Z,99.90
2019-03-28T00:13:17.164Z,99.90
2019-03-28T00:15:47.165Z,99.90
2019-03-28T00:18:16.800Z,99.90
2019-03-28T00:20:46.495Z,99.90
2019-03-28T00:23:36.214Z,99.90
2019-03-28T00:26:05.896Z,99.90
2019-03-28T00:28:35.542Z,99.90
2019-03-28T00:31:05.233Z,99.90
2019-03-28T00:33:34.886Z,99.90
2019-03-28T00:36:04.517Z,99.90
2019-03-28T00:38:34.305Z,99.90
2019-03-28T00:41:03.934Z,99.90
2019-03-28T00:43:33.578Z,99.90
2019-03-28T00:46:03.205Z,99.90
2019-03-28T00:48:32.857Z,99.90
2019-03-28T00:51:02.480Z,99.90
2019-03-28T00:53:32.124Z,99.90
2019-03-28T00:56:02.304Z,99.90
2019-03-28T00:58:32.096Z,99.90
2019-03-28T01:01:01.720Z,99.90
2019-03-28T01:03:31.373Z,99.90
2019-03-28T01:06:00.994Z,99.90
2019-03-28T01:08:30.645Z,99.90
2019-03-28T01:11:00.268Z,99.90
2019-03-28T01:13:29.913Z,99.90
2019-03-28T01:15:59.541Z,99.90
2019-03-28T01:18:29.189Z,99.90
2019-03-28T01:20:58.814Z,99.90
2019-03-28T01:23:28.434Z,99.90
2019-03-28T01:25:58.089Z,99.90
2019-03-28T01:28:27.704Z,99.90
2019-03-28T01:30:57.357Z,99.90
2019-03-28T01:33:26.985Z,99.90
2019-03-28T01:35:56.729Z,99.90
2019-03-28T01:38:26.366Z,99.90
2019-03-28T01:40:56.017Z,99.90
2019-03-28T01:43:25.639Z,99.90
2019-03-28T01:45:55.357Z,99.90
2019-03-28T01:48:24.972Z,99.90
2019-03-28T01:50:54.697Z,99.90
2019-03-28T01:53:24.317Z,99.90
2019-03-28T01:55:53.964Z,99.90
2019-03-28T01:58:23.589Z,99.90
2019-03-28T02:00:53.312Z,99.90
2019-03-28T02:03:22.932Z,99.90
2019-03-28T02:05:52.616Z,99.90
2019-03-28T02:08:24.783Z,99.90
2019-03-28T02:10:53.506Z,99.90
2019-03-28T02:13:23.124Z,99.90
2019-03-28T02:15:53.000Z,99.90
2019-03-28T02:18:22.620Z,99.90
2019-03-28T02:20:52.265Z,99.90
2019-03-28T02:23:21.885Z,99.90
2019-03-28T02:25:51.537Z,99.90
2019-03-28T02:28:21.153Z,99.90
2019-03-28T02:30:50.989Z,99.90
2019-03-28T02:33:20.621Z,99.90
2019-03-28T02:35:50.343Z,99.90
2019-03-28T02:38:19.973Z,99.90
2019-03-28T02:40:49.601Z,99.90
2019-03-28T02:43:19.914Z,99.90
2019-03-28T02:45:49.773Z,99.90
2019-03-28T02:48:19.404Z,99.90
2019-03-28T02:50:49.237Z,99.90
2019-03-28T02:53:18.857Z,99.90
2019-03-28T02:55:49.705Z,99.90
2019-03-28T02:58:19.629Z,99.90
2019-03-28T03:00:49.557Z,99.90
2019-03-28T03:03:19.189Z,99.90
2019-03-28T03:05:48.885Z,99.90
2019-03-28T03:08:18.512Z,99.90
2019-03-28T03:10:48.171Z,99.90
2019-03-28T03:13:17.798Z,99.90
2019-03-28T03:15:47.517Z,99.90
2019-03-28T03:18:21.178Z,99.90
2019-03-28T03:20:48.402Z,99.90
2019-03-28T03:23:18.117Z,99.90
2019-03-28T03:25:48.308Z,99.90
2019-03-28T03:28:17.930Z,99.90
2019-03-28T03:30:47.588Z,99.90
2019-03-28T03:33:17.273Z,99.90
2019-03-28T03:35:47.038Z,99.90
2019-03-28T03:38:16.662Z,99.90
2019-03-28T03:40:46.413Z,99.90
2019-03-28T03:43:16.032Z,99.90
2019-03-28T03:45:45.770Z,99.90
2019-03-28T03:48:15.398Z,99.90
2019-03-28T03:50:45.044Z,99.90
2019-03-28T03:53:14.660Z,99.90
2019-03-28T03:55:44.309Z,99.90
2019-03-28T03:58:16.620Z,99.90
2019-03-28T04:00:45.201Z,99.90
2019-03-28T04:03:14.820Z,99.90
2019-03-28T04:05:44.471Z,99.90
2019-03-28T04:08:14.093Z,99.90
2019-03-28T04:10:43.732Z,99.90
2019-03-28T04:13:13.350Z,99.90
2019-03-28T04:15:44.114Z,99.90
2019-03-28T04:18:13.876Z,99.90
2019-03-28T04:20:43.784Z,99.90
2019-03-28T04:23:13.425Z,99.90
2019-03-28T04:25:43.121Z,99.90
2019-03-28T04:28:12.947Z,99.90
2019-03-28T04:30:42.707Z,99.90
2019-03-28T04:33:12.346Z,99.90
2019-03-28T04:35:42.060Z,99.90
2019-03-28T04:38:11.702Z,99.90
2019-03-28T04:40:41.325Z,99.90
2019-03-28T04:43:10.978Z,99.90
2019-03-28T04:45:40.605Z,99.90
2019-03-28T04:48:10.238Z,99.90
2019-03-28T04:50:39.868Z,99.90
2019-03-28T04:53:09.521Z,99.90
2019-03-28T04:55:39.325Z,99.90
2019-03-28T04:58:08.974Z,99.90
2019-03-28T05:00:38.604Z,99.90
2019-03-28T05:03:08.248Z,99.90
2019-03-28T05:05:37.872Z,99.90
2019-03-28T05:08:08.377Z,99.90
2019-03-28T05:10:38.156Z,99.90
2019-03-28T05:13:07.805Z,99.90
2019-03-28T05:15:37.426Z,99.90
2019-03-28T05:18:07.068Z,99.90
2019-03-28T05:20:36.688Z,99.90
2019-03-28T05:23:06.815Z,99.90
2019-03-28T05:25:37.763Z,99.90
2019-03-28T05:28:07.504Z,99.90
2019-03-28T05:30:37.132Z,99.90
2019-03-28T05:33:06.777Z,99.90
2019-03-28T05:35:36.404Z,99.90
2019-03-28T05:38:06.044Z,99.90
2019-03-28T05:40:36.490Z,99.90
2019-03-28T05:43:06.420Z,99.90
2019-03-28T05:45:36.072Z,99.90
2019-03-28T05:48:19.690Z,99.90
2019-03-28T05:50:49.491Z,99.90
2019-03-28T05:53:19.133Z,99.90
2019-03-28T05:55:48.912Z,99.90
2019-03-28T05:58:18.562Z,99.90
2019-03-28T06:00:51.155Z,99.90
2019-03-28T06:03:19.448Z,99.90
2019-03-28T06:05:49.072Z,99.90
2019-03-28T06:08:18.721Z,99.90
2019-03-28T06:10:48.340Z,99.90
2019-03-28T06:13:17.988Z,99.90
2019-03-28T06:15:47.615Z,99.90
2019-03-28T06:18:17.273Z,99.90
2019-03-28T06:20:46.901Z,99.90
2019-03-28T06:23:16.565Z,99.90
2019-03-28T06:25:46.263Z,99.90
2019-03-28T06:28:15.913Z,99.90
2019-03-28T06:30:45.855Z,99.90
2019-03-28T06:33:15.448Z,99.90
2019-03-28T06:35:45.551Z,99.90
2019-03-28T06:38:15.724Z,99.90
2019-03-28T06:40:45.895Z,99.90
2019-03-28T06:43:17.665Z,99.90
2019-03-28T06:45:47.677Z,99.90
2019-03-28T06:48:17.784Z,99.90
2019-03-28T06:50:48.076Z,99.90
2019-03-28T06:53:18.159Z,99.90
2019-03-28T06:55:48.475Z,99.90
2019-03-28T06:58:18.272Z,99.90
2019-03-28T07:00:48.275Z,99.90
2019-03-28T07:03:17.887Z,99.90
2019-03-28T07:05:49.860Z,99.90
2019-03-28T07:08:20.081Z,99.90
2019-03-28T07:10:50.388Z,99.90
2019-03-28T07:13:21.329Z,99.90
2019-03-28T07:15:51.164Z,99.80
2019-03-28T07:18:22.178Z,99.00
2019-03-28T07:20:52.452Z,97.50
2019-03-28T07:23:22.329Z,96.90
2019-03-28T07:25:52.144Z,95.90
2019-03-28T07:28:22.921Z,95.70
2019-03-28T07:30:52.665Z,97.60
2019-03-28T07:33:22.361Z,95.40
2019-03-28T07:35:52.040Z,91.60
2019-03-28T07:38:21.664Z,90.40
2019-03-28T07:40:51.318Z,89.90
2019-03-28T07:43:20.937Z,90.70
2019-03-28T07:45:50.667Z,92.50
2019-03-28T07:48:20.487Z,89.90
2019-03-28T07:50:50.250Z,84.40
2019-03-28T07:53:20.132Z,85.50
2019-03-28T07:55:50.786Z,84.30
2019-03-28T07:58:20.396Z,83.40
2019-03-28T08:00:50.049Z,82.00
2019-03-28T08:03:19.677Z,81.50
2019-03-28T08:05:49.328Z,85.70
2019-03-28T08:08:19.031Z,78.90
2019-03-28T08:10:48.668Z,78.50
2019-03-28T08:13:18.296Z,81.00
2019-03-28T08:15:47.949Z,80.30
2019-03-28T08:18:17.580Z,84.10
2019-03-28T08:20:47.232Z,76.50
2019-03-28T08:23:17.032Z,74.50
2019-03-28T08:25:46.685Z,77.10
2019-03-28T08:28:16.316Z,70.00
2019-03-28T08:30:45.970Z,71.80
2019-03-28T08:33:15.660Z,69.90
2019-03-28T08:35:45.448Z,71.40
2019-03-28T08:38:15.514Z,69.20
2019-03-28T08:40:45.626Z,68.50
2019-03-28T08:43:15.248Z,66.90
2019-03-28T08:45:44.977Z,65.30
2019-03-28T08:48:14.601Z,64.60
2019-03-28T08:50:44.257Z,62.70
2019-03-28T08:53:13.880Z,65.00
2019-03-28T08:55:43.682Z,66.20
2019-03-28T08:58:13.379Z,66.90
2019-03-28T09:00:51.623Z,64.60
2019-03-28T09:03:14.678Z,66.20
2019-03-28T09:05:44.335Z,65.50
2019-03-28T09:08:13.964Z,65.60
2019-03-28T09:10:43.621Z,66.70
2019-03-28T09:13:13.648Z,66.00
2019-03-28T09:15:44.296Z,64.70
2019-03-28T09:18:13.996Z,61.00
2019-03-28T09:20:43.638Z,60.30
2019-03-28T09:23:13.284Z,59.70
2019-03-28T09:25:42.920Z,56.00
2019-03-28T09:28:12.543Z,54.70
2019-03-28T09:30:48.605Z,54.00
2019-03-28T09:33:15.977Z,56.00
2019-03-28T09:35:46.250Z,54.60
2019-03-28T09:38:16.172Z,51.10
2019-03-28T09:40:45.961Z,52.80
2019-03-28T09:43:15.585Z,52.40
2019-03-28T09:45:45.243Z,51.10
2019-03-28T09:48:16.197Z,52.00
2019-03-28T09:50:45.947Z,53.60
2019-03-28T09:53:15.979Z,53.10
2019-03-28T09:55:45.797Z,52.50
2019-03-28T10:01:06.181Z,52.80
2019-03-28T10:03:35.819Z,49.60
2019-03-28T10:06:06.646Z,48.70
2019-03-28T10:08:36.413Z,48.00
2019-03-28T10:11:06.076Z,50.00
2019-03-28T10:13:36.481Z,51.30
2019-03-28T10:16:06.289Z,46.70
2019-03-28T10:18:36.011Z,49.00
2019-03-28T10:21:05.657Z,49.70
2019-03-28T10:23:35.301Z,48.30
2019-03-28T10:26:05.308Z,50.30
2019-03-28T10:28:34.921Z,50.90
2019-03-28T10:31:15.912Z,48.30
2019-03-28T10:33:36.103Z,49.80
2019-03-28T10:36:05.958Z,48.70
2019-03-28T10:38:35.688Z,50.00
2019-03-28T10:41:05.387Z,49.00
2019-03-28T10:43:35.044Z,48.20
2019-03-28T10:46:04.917Z,47.10
2019-03-28T10:48:34.672Z,48.00
2019-03-28T10:51:04.578Z,46.30
2019-03-28T10:53:34.796Z,46.80
2019-03-28T10:56:04.794Z,46.50
2019-03-28T10:58:35.190Z,48.60
2019-03-28T11:01:06.074Z,48.70
2019-03-28T11:03:35.813Z,48.60
2019-03-28T11:06:06.530Z,46.90
2019-03-28T11:08:36.837Z,48.50
2019-03-28T11:11:07.457Z,47.60
2019-03-28T11:13:37.317Z,48.60
2019-03-28T11:16:07.387Z,46.00
2019-03-28T11:18:37.511Z,45.40
2019-03-28T11:21:07.837Z,46.20
2019-03-28T11:23:37.596Z,45.50
2019-03-28T11:26:07.586Z,46.20
2019-03-28T11:28:42.830Z,47.00
2019-03-28T11:31:12.914Z,45.90
2019-03-28T11:33:42.818Z,45.70
2019-03-28T11:36:13.176Z,45.80
2019-03-28T11:38:43.033Z,47.00
2019-03-28T11:41:12.692Z,47.90
2019-03-28T11:43:42.389Z,47.00
2019-03-28T11:46:12.633Z,46.90
2019-03-28T11:48:42.329Z,48.80
2019-03-28T11:51:11.980Z,48.70
2019-03-28T11:53:42.542Z,47.80
2019-03-28T11:56:14.514Z,47.10
2019-03-28T11:58:45.236Z,47.70
2019-03-28T12:01:16.097Z,45.70
2019-03-28T12:03:46.556Z,46.90
2019-03-28T12:06:17.842Z,46.40
2019-03-28T12:08:49.068Z,45.20
2019-03-28T12:11:18.877Z,47.10
2019-03-28T12:13:48.701Z,46.60
2019-03-28T12:16:18.360Z,45.30
2019-03-28T12:18:48.441Z,44.40
2019-03-28T12:21:18.763Z,45.40
2019-03-28T12:23:50.595Z,44.10
2019-03-28T12:29:17.661Z,44.00
2019-03-28T12:31:47.628Z,43.50
2019-03-28T12:34:17.307Z,44.30
2019-03-28T12:36:46.972Z,44.40
2019-03-28T12:39:17.072Z,45.60
2019-03-28T12:41:46.732Z,46.00
2019-03-28T12:44:16.412Z,47.10
2019-03-28T12:46:46.148Z,46.20
2019-03-28T12:49:15.835Z,50.20
2019-03-28T12:51:45.560Z,54.30
2019-03-28T12:54:15.398Z,50.80
2019-03-28T12:56:44.997Z,49.20
2019-03-28T12:59:14.809Z,50.80
2019-03-28T13:01:44.555Z,51.80
2019-03-28T13:04:14.303Z,50.80
2019-03-28T13:06:44.060Z,52.50
2019-03-28T13:09:13.739Z,45.80
2019-03-28T13:11:43.396Z,47.50
2019-03-28T13:14:13.076Z,45.90
2019-03-28T13:16:42.819Z,45.20
2019-03-28T13:19:12.498Z,47.70
2019-03-28T13:21:42.216Z,46.70
2019-03-28T13:24:11.970Z,46.30
2019-03-28T13:26:41.640Z,44.90
2019-03-28T13:29:11.397Z,45.90
2019-03-28T13:31:41.188Z,47.90
2019-03-28T13:34:10.871Z,47.30
2019-03-28T13:36:40.587Z,43.70
2019-03-28T13:39:10.298Z,46.10
2019-03-28T13:41:39.941Z,45.80
2019-03-28T13:44:12.139Z,45.30
2019-03-28T13:46:41.817Z,44.30
2019-03-28T13:49:11.652Z,43.70
2019-03-28T13:51:42.488Z,45.80
2019-03-28T13:54:12.240Z,45.90
2019-03-28T13:56:43.857Z,44.50
2019-03-28T13:59:13.253Z,44.60
2019-03-28T14:01:42.928Z,44.30
2019-03-28T14:04:12.613Z,43.40
2019-03-28T14:06:42.281Z,43.30
2019-03-28T14:09:12.029Z,43.70
2019-03-28T14:11:41.756Z,42.70
2019-03-28T14:14:11.581Z,43.20
2019-03-28T14:16:41.258Z,44.10
2019-03-28T14:19:11.125Z,45.90
2019-03-28T14:21:40.784Z,45.10
2019-03-28T14:24:11.881Z,45.90
2019-03-28T14:26:41.688Z,46.70
2019-03-28T14:29:11.408Z,47.00
2019-03-28T14:31:41.083Z,46.60
2019-03-28T14:34:10.764Z,46.60
2019-03-28T14:36:42.340Z,46.50
2019-03-28T14:39:12.025Z,46.50
2019-03-28T14:41:41.688Z,48.00
2019-03-28T14:44:11.350Z,48.10
2019-03-28T14:46:41.162Z,47.90
2019-03-28T14:49:11.428Z,49.40
2019-03-28T14:51:41.678Z,48.80
2019-03-28T14:54:11.564Z,48.60
2019-03-28T14:56:42.179Z,48.40
2019-03-28T14:59:13.076Z,48.30
2019-03-28T15:01:42.760Z,47.80
2019-03-28T15:04:12.420Z,47.00
2019-03-28T15:06:42.217Z,48.40
2019-03-28T15:09:11.876Z,48.70
2019-03-28T15:11:41.560Z,48.80
2019-03-28T15:14:11.220Z,49.10
2019-03-28T15:16:40.965Z,49.10
2019-03-28T15:19:10.692Z,49.40
2019-03-28T15:21:41.030Z,50.00
2019-03-28T15:24:10.801Z,49.80
2019-03-28T15:26:40.784Z,50.80
2019-03-28T15:29:10.518Z,50.20
2019-03-28T15:31:40.283Z,51.00
2019-03-28T15:34:09.963Z,52.50
2019-03-28T15:36:42.129Z,51.10
2019-03-28T15:39:12.040Z,50.30
2019-03-28T15:41:41.777Z,50.50
2019-03-28T15:44:11.464Z,50.30
2019-03-28T15:46:41.954Z,51.10
2019-03-28T15:49:11.617Z,51.00
2019-03-28T15:51:41.295Z,51.80
2019-03-28T15:54:10.998Z,52.10
2019-03-28T15:56:40.810Z,52.30
2019-03-28T15:59:11.999Z,53.00
2019-03-28T16:01:41.684Z,52.20
2019-03-28T16:04:11.344Z,52.20
2019-03-28T16:06:41.564Z,52.10
2019-03-28T16:09:11.529Z,53.20
2019-03-28T16:11:41.257Z,53.20
2019-03-28T16:14:10.924Z,54.10
2019-03-28T16:16:40.740Z,53.60
2019-03-28T16:19:10.416Z,53.90
2019-03-28T16:21:40.110Z,54.40
2019-03-28T16:24:10.113Z,54.60
2019-03-28T16:26:39.887Z,54.50
2019-03-28T16:29:09.544Z,55.50
2019-03-28T16:31:39.299Z,55.60
2019-03-28T16:34:09.032Z,56.10
2019-03-28T16:36:38.976Z,57.80
2019-03-28T16:39:08.858Z,60.10
2019-03-28T16:41:39.084Z,63.60
2019-03-28T16:44:08.884Z,58.10
2019-03-28T16:46:38.661Z,63.90
2019-03-28T16:49:10.105Z,58.30
2019-03-28T16:51:59.133Z,56.80
2019-03-28T16:54:28.918Z,58.00
2019-03-28T16:56:59.004Z,57.00
2019-03-28T16:59:28.656Z,58.00
2019-03-28T17:01:58.522Z,56.70
2019-03-28T17:04:28.671Z,56.90
2019-03-28T17:06:59.640Z,56.80
2019-03-28T17:09:30.309Z,56.00
2019-03-28T17:12:00.076Z,57.10
2019-03-28T17:14:29.867Z,55.80
2019-03-28T17:17:01.009Z,56.30
2019-03-28T17:19:32.282Z,57.70
2019-03-28T17:22:01.973Z,58.40
2019-03-28T17:24:32.077Z,58.50
2019-03-28T17:27:01.861Z,59.60
2019-03-28T17:29:31.512Z,60.10
2019-03-28T17:32:01.201Z,61.00
2019-03-28T17:34:35.224Z,61.30
2019-03-28T17:37:06.044Z,61.60
2019-03-28T17:39:37.043Z,62.50
2019-03-28T17:42:08.438Z,63.20
2019-03-28T17:44:38.554Z,63.60
2019-03-28T17:47:10.748Z,64.00
2019-03-28T17:49:40.623Z,64.50
2019-03-28T17:52:10.291Z,64.90
2019-03-28T17:54:40.930Z,66.10
2019-03-28T17:57:10.715Z,65.70
2019-03-28T17:59:40.435Z,66.90
2019-03-28T18:02:10.122Z,66.40
2019-03-28T18:04:47.820Z,68.10
2019-03-28T18:07:11.146Z,67.20
2019-03-28T18:09:40.741Z,67.60
2019-03-28T18:12:10.419Z,68.70
2019-03-28T18:14:40.226Z,69.50
2019-03-28T18:17:09.916Z,70.90
2019-03-28T18:19:39.747Z,69.40
2019-03-28T18:22:09.441Z,69.70
2019-03-28T18:24:39.096Z,70.80
2019-03-28T18:27:08.787Z,71.40
2019-03-28T18:29:38.455Z,71.20
2019-03-28T18:32:08.140Z,72.30
2019-03-28T18:34:37.898Z,74.00
2019-03-28T18:37:07.644Z,72.50
2019-03-28T18:39:37.302Z,74.00
2019-03-28T18:42:07.034Z,73.10
2019-03-28T18:44:36.699Z,74.40
2019-03-28T18:47:06.390Z,74.20
2019-03-28T18:49:36.041Z,74.40
2019-03-28T18:52:07.505Z,76.10
2019-03-28T18:54:37.499Z,76.10
2019-03-28T18:57:07.349Z,77.70
2019-03-28T18:59:37.015Z,77.90
2019-03-28T19:02:06.839Z,78.50
2019-03-28T19:04:36.901Z,77.20
2019-03-28T19:07:06.543Z,77.70
2019-03-28T19:09:36.216Z,77.30
2019-03-28T19:12:05.864Z,79.20
2019-03-28T19:14:35.707Z,78.60
2019-03-28T19:17:07.154Z,78.80
2019-03-28T19:19:39.615Z,78.60
2019-03-28T19:22:08.088Z,81.30
2019-03-28T19:24:37.897Z,81.60
2019-03-28T19:27:07.532Z,82.80
2019-03-28T19:29:37.284Z,81.90
2019-03-28T19:32:06.934Z,84.60
2019-03-28T19:34:36.635Z,84.00
2019-03-28T19:37:06.455Z,85.40
2019-03-28T19:39:36.711Z,83.40
2019-03-28T19:42:06.664Z,85.10
2019-03-28T19:44:37.124Z,86.30
2019-03-28T19:47:06.783Z,85.90
2019-03-28T19:49:36.467Z,86.70
2019-03-28T19:52:06.135Z,86.70
2019-03-28T19:54:35.981Z,88.00
2019-03-28T19:57:05.965Z,86.10
2019-03-28T19:59:35.652Z,88.50
2019-03-28T20:02:05.451Z,88.10
2019-03-28T20:04:35.196Z,89.50
2019-03-28T20:07:04.924Z,89.40
2019-03-28T20:09:34.613Z,90.20
2019-03-28T20:12:05.381Z,90.40
2019-03-28T20:14:35.330Z,91.30
2019-03-28T20:17:05.045Z,92.60
2019-03-28T20:19:34.725Z,92.40
2019-03-28T20:22:04.677Z,92.50
2019-03-28T20:24:34.711Z,93.20
2019-03-28T20:27:04.607Z,93.90
2019-03-28T20:29:35.093Z,93.90
2019-03-28T20:32:08.077Z,94.20
2019-03-28T20:34:36.433Z,95.10
2019-03-28T20:37:06.076Z,94.50
2019-03-28T20:39:35.760Z,94.50
2019-03-28T20:42:05.420Z,94.70
2019-03-28T20:44:35.106Z,95.00
2019-03-28T20:47:04.900Z,95.70
2019-03-28T20:49:34.971Z,96.10
2019-03-28T20:52:04.875Z,96.60
2019-03-28T20:54:34.568Z,96.60
2019-03-28T20:57:04.565Z,96.60
2019-03-28T20:59:34.252Z,96.90
2019-03-28T21:02:04.072Z,97.60
2019-03-28T21:04:34.400Z,97.40
2019-03-28T21:07:04.460Z,97.90
2019-03-28T21:09:34.313Z,98.70
2019-03-28T21:12:04.141Z,98.50
2019-03-28T21:14:33.972Z,98.20
2019-03-28T21:17:05.027Z,98.90
2019-03-28T21:19:34.911Z,99.30
2019-03-28T21:22:05.961Z,99.50
2019-03-28T21:24:36.079Z,99.60
2019-03-28T21:27:06.909Z,99.90
2019-03-28T21:29:48.250Z,99.90
2019-03-28T21:32:08.052Z,99.90
2019-03-28T21:34:37.729Z,99.90
2019-03-28T21:37:07.368Z,99.90
2019-03-28T21:39:39.891Z,99.90
2019-03-28T21:42:08.327Z,99.90
2019-03-28T21:44:38.025Z,99.90
2019-03-28T21:47:07.644Z,99.90
2019-03-28T21:49:37.362Z,99.90
2019-03-28T21:52:07.630Z,99.90
2019-03-28T21:54:37.788Z,99.90
2019-03-28T21:57:07.415Z,99.90
2019-03-28T21:59:37.056Z,99.90
2019-03-28T22:02:06.845Z,99.90
2019-03-28T22:04:36.513Z,99.90
2019-03-28T22:07:06.116Z,99.90
2019-03-28T22:09:35.768Z,99.90
2019-03-28T22:12:05.676Z,99.90
2019-03-28T22:14:35.334Z,99.90
2019-03-28T22:17:05.048Z,99.90
2019-03-28T22:19:34.681Z,99.90
2019-03-28T22:22:04.489Z,99.90
2019-03-28T22:24:34.162Z,99.90
2019-03-28T22:27:03.807Z,99.90
2019-03-28T22:29:33.432Z,99.90
2019-03-28T22:32:03.084Z,99.90
2019-03-28T22:34:33.974Z,99.90
2019-03-28T22:37:03.849Z,99.90
2019-03-28T22:39:33.469Z,99.90
2019-03-28T22:42:03.120Z,99.90
2019-03-28T22:44:34.037Z,99.90
2019-03-28T22:47:03.896Z,99.90
2019-03-28T22:49:33.514Z,99.90
2019-03-28T22:52:03.153Z,99.90
2019-03-28T22:54:32.774Z,99.90
2019-03-28T22:57:02.412Z,99.90
2019-03-28T22:59:32.942Z,99.90
2019-03-28T23:02:02.955Z,99.90
2019-03-28T23:04:32.971Z,99.90
2019-03-28T23:07:10.712Z,99.90
2019-03-28T23:09:33.852Z,99.90
2019-03-28T23:12:03.500Z,99.90
2019-03-28T23:14:33.152Z,99.90
2019-03-28T23:17:02.852Z,99.90
2019-03-28T23:19:32.477Z,99.90
2019-03-28T23:22:02.188Z,99.90
2019-03-28T23:24:31.942Z,99.90
2019-03-28T23:27:01.618Z,99.90
2019-03-28T23:29:31.236Z,99.90
2019-03-28T23:32:00.880Z,99.90
2019-03-28T23:34:30.500Z,99.90
2019-03-28T23:37:00.149Z,99.90
2019-03-28T23:39:29.771Z,99.90
2019-03-28T23:41:59.417Z,99.90
2019-03-28T23:44:29.144Z,99.90
2019-03-28T23:46:58.785Z,99.90
2019-03-28T23:49:28.418Z,99.90
2019-03-28T23:51:58.061Z,99.90
2019-03-28T23:54:27.672Z,99.90
2019-03-28T23:56:57.330Z,99.90
2019-03-28T23:59:26.948Z,99.90
